Time;durP1;ratioP1;P1;durP2;ratioP2;P2;SDS_P1;SDS_P2;PMS_P1;PMS_P2;Temp;Humidity;BMP_temperature;BMP_pressure;BME280_temperature;BME280_humidity;BME280_pressure;Samples;Min_cycle;Max_cycle;Signal;HPM_P1;HPM_P2
2023/05/11 00:02:14;;;;;;;8.38;4.57;;;;;;;;;;5051077;28;20063;-81
2023/05/11 00:04:39;;;;;;;7.78;4.32;;;;;;;;;;5055780;28;20028;-80
2023/05/11 00:07:04;;;;;;;7.05;4.72;;;;;;;;;;5052260;28;20040;-80
2023/05/11 00:09:30;;;;;;;6.32;4.10;;;;;;;;;;5038116;28;20118;-83
2023/05/11 00:11:56;;;;;;;7.32;4.28;;;;;;;;;;5029505;28;20379;-81
2023/05/11 00:14:21;;;;;;;8.30;4.78;;;;;;;;;;5043390;28;20131;-80
2023/05/11 00:16:46;;;;;;;7.20;4.25;;;;;;;;;;5058072;28;20048;-81
2023/05/11 00:19:12;;;;;;;7.53;3.97;;;;;;;;;;5054547;28;20044;-82
2023/05/11 00:21:37;;;;;;;7.18;4.20;;;;;;;;;;5039089;28;20095;-81
2023/05/11 00:24:02;;;;;;;7.50;3.85;;;;;;;;;;5032144;28;20045;-80
2023/05/11 00:26:28;;;;;;;6.05;3.92;;;;;;;;;;5053203;28;20040;-80
2023/05/11 00:28:53;;;;;;;6.53;3.83;;;;;;;;;;5022319;28;20056;-80
2023/05/11 00:31:19;;;;;;;7.22;3.90;;;;;;;;;;5031684;28;20048;-82
2023/05/11 00:33:44;;;;;;;5.38;3.67;;;;;;;;;;5033210;28;20605;-82
2023/05/11 00:36:10;;;;;;;7.00;3.90;;;;;;;;;;5033440;28;20488;-81
2023/05/11 00:38:41;;;;;;;5.80;3.42;;;;;;;;;;5039815;28;20051;-81
2023/05/11 00:41:07;;;;;;;5.75;3.35;;;;;;;;;;5035471;28;20071;-81
2023/05/11 00:43:32;;;;;;;6.10;3.47;;;;;;;;;;5016005;28;23935;-80
2023/05/11 00:45:58;;;;;;;8.02;4.00;;;;;;;;;;5031746;28;20052;-80
2023/05/11 00:48:23;;;;;;;5.78;3.95;;;;;;;;;;5028808;28;20036;-80
2023/05/11 00:50:49;;;;;;;6.35;3.90;;;;;;;;;;5041946;28;20035;-81
2023/05/11 00:53:15;;;;;;;7.18;4.00;;;;;;;;;;5044063;28;20032;-80
2023/05/11 00:55:41;;;;;;;7.22;3.97;;;;;;;;;;5034123;28;20047;-81
2023/05/11 00:58:06;;;;;;;7.80;3.92;;;;;;;;;;5043731;28;20040;-80
2023/05/11 01:00:32;;;;;;;5.97;3.70;;;;;;;;;;5044849;28;20111;-80
2023/05/11 01:03:00;;;;;;;5.63;3.53;;;;;;;;;;5048623;28;20107;-80
2023/05/11 01:05:35;;;;;;;6.57;3.83;;;;;;;;;;5033425;28;20073;-80
2023/05/11 01:08:14;;;;;;;5.88;4.05;;;;;;;;;;5039408;28;20452;-80
2023/05/11 01:11:05;;;;;;;5.75;3.83;;;;;;;;;;5038799;28;20060;-81
2023/05/11 01:13:36;;;;;;;6.80;3.80;;;;;;;;;;5020487;28;20036;-80
2023/05/11 01:16:11;;;;;;;6.07;3.75;;;;;;;;;;5045195;28;20401;-80
2023/05/11 01:19:11;;;;;;;5.35;3.65;;;;;;;;;;5032169;28;20047;-80
2023/05/11 01:21:38;;;;;;;7.75;4.38;;;;;;;;;;5027983;28;20123;-81
2023/05/11 01:24:10;;;;;;;5.75;3.70;;;;;;;;;;5043395;28;20044;-82
2023/05/11 01:26:54;;;;;;;6.55;3.85;;;;;;;;;;5052347;28;20039;-81
2023/05/11 01:29:43;;;;;;;6.93;4.13;;;;;;;;;;5042631;28;20063;-82
2023/05/11 01:32:24;;;;;;;6.32;3.92;;;;;;;;;;5021145;28;20437;-83
2023/05/11 01:35:05;;;;;;;23.08;4.30;;;;;;;;;;5027601;28;20463;-81
2023/05/11 01:37:31;;;;;;;10.75;4.10;;;;;;;;;;5043440;28;20044;-82
2023/05/11 01:40:00;;;;;;;5.38;3.72;;;;;;;;;;5040636;28;20068;-82
2023/05/11 01:42:34;;;;;;;5.70;3.65;;;;;;;;;;5031017;28;20151;-81
2023/05/11 01:45:00;;;;;;;5.63;3.75;;;;;;;;;;4991320;28;20480;-82
2023/05/11 01:47:29;;;;;;;7.60;4.13;;;;;;;;;;5015656;28;20052;-82
2023/05/11 01:49:55;;;;;;;6.75;3.70;;;;;;;;;;5020008;28;20041;-81
2023/05/11 01:52:23;;;;;;;8.63;3.83;;;;;;;;;;5020081;28;20079;-81
2023/05/11 01:54:51;;;;;;;6.45;3.88;;;;;;;;;;5006578;28;20036;-82
2023/05/11 01:57:17;;;;;;;5.63;3.63;;;;;;;;;;5020229;28;20048;-80
2023/05/11 01:59:43;;;;;;;7.82;4.15;;;;;;;;;;5031497;28;20366;-81
2023/05/11 02:02:11;;;;;;;6.68;3.95;;;;;;;;;;5039034;28;20449;-83
2023/05/11 02:04:38;;;;;;;7.15;4.13;;;;;;;;;;5040655;28;20041;-81
2023/05/11 02:07:06;;;;;;;7.00;3.80;;;;;;;;;;5049226;28;20037;-80
2023/05/11 02:09:33;;;;;;;7.28;4.22;;;;;;;;;;5039011;28;20074;-81
2023/05/11 02:12:00;;;;;;;7.28;4.35;;;;;;;;;;4974406;28;20057;-82
2023/05/11 02:14:28;;;;;;;6.13;3.88;;;;;;;;;;5021836;28;20545;-81
2023/05/11 02:16:55;;;;;;;7.60;4.35;;;;;;;;;;5035648;28;20036;-82
2023/05/11 02:19:20;;;;;;;8.25;4.90;;;;;;;;;;5050292;28;20179;-82
2023/05/11 02:21:48;;;;;;;6.78;3.95;;;;;;;;;;5038420;28;20156;-82
2023/05/11 02:24:15;;;;;;;8.52;4.50;;;;;;;;;;5022632;28;20045;-82
2023/05/11 02:26:41;;;;;;;5.95;4.20;;;;;;;;;;5016023;28;20840;-81
2023/05/11 02:29:06;;;;;;;8.57;4.97;;;;;;;;;;5022891;28;20044;-81
2023/05/11 02:31:38;;;;;;;6.97;4.07;;;;;;;;;;5033961;28;20509;-82
2023/05/11 02:34:08;;;;;;;7.55;4.85;;;;;;;;;;5029337;28;20033;-80
2023/05/11 02:36:37;;;;;;;8.05;4.95;;;;;;;;;;5017861;28;20047;-82
2023/05/11 02:39:07;;;;;;;7.45;4.28;;;;;;;;;;5022833;28;20037;-81
2023/05/11 02:41:37;;;;;;;7.07;3.90;;;;;;;;;;5026647;28;20033;-80
2023/05/11 02:44:06;;;;;;;5.97;4.15;;;;;;;;;;5013085;28;20101;-81
2023/05/11 02:46:35;;;;;;;6.95;4.05;;;;;;;;;;5026032;28;20186;-80
2023/05/11 02:49:04;;;;;;;7.95;3.97;;;;;;;;;;5043876;28;20041;-80
2023/05/11 02:51:34;;;;;;;7.05;4.40;;;;;;;;;;5042486;28;20033;-79
2023/05/11 02:54:01;;;;;;;7.60;4.07;;;;;;;;;;5032481;28;20038;-80
2023/05/11 02:56:26;;;;;;;7.55;4.07;;;;;;;;;;5052059;28;20276;-79
2023/05/11 02:58:52;;;;;;;9.70;4.45;;;;;;;;;;5057582;28;20052;-79
2023/05/11 03:01:18;;;;;;;7.85;4.50;;;;;;;;;;5044136;28;20049;-80
2023/05/11 03:03:44;;;;;;;6.95;4.00;;;;;;;;;;5041287;28;20055;-79
2023/05/11 03:06:09;;;;;;;6.75;4.00;;;;;;;;;;5040890;28;20513;-79
2023/05/11 03:08:35;;;;;;;7.93;4.68;;;;;;;;;;5054685;28;20037;-80
2023/05/11 03:11:02;;;;;;;9.77;5.00;;;;;;;;;;5038892;28;20040;-81
2023/05/11 03:13:28;;;;;;;8.85;5.45;;;;;;;;;;5009856;28;20651;-81
2023/05/11 03:15:54;;;;;;;9.93;5.20;;;;;;;;;;5045521;28;20040;-81
2023/05/11 03:18:21;;;;;;;6.72;3.90;;;;;;;;;;5046453;28;20090;-81
2023/05/11 03:20:48;;;;;;;10.18;5.32;;;;;;;;;;5036007;28;20044;-80
2023/05/11 03:23:16;;;;;;;9.00;5.03;;;;;;;;;;5051240;28;20055;-79
2023/05/11 03:25:43;;;;;;;7.18;4.88;;;;;;;;;;5050766;28;20036;-80
2023/05/11 03:28:09;;;;;;;8.73;4.78;;;;;;;;;;5044051;28;20533;-80
2023/05/11 03:30:36;;;;;;;7.78;4.50;;;;;;;;;;5038908;28;20048;-80
2023/05/11 03:33:02;;;;;;;6.75;4.32;;;;;;;;;;5050487;28;20044;-81
2023/05/11 03:35:32;;;;;;;7.88;4.30;;;;;;;;;;5053835;28;20035;-81
2023/05/11 03:37:58;;;;;;;8.18;4.78;;;;;;;;;;5050922;28;20050;-80
2023/05/11 03:40:26;;;;;;;9.57;5.50;;;;;;;;;;5032093;28;20037;-81
2023/05/11 03:42:54;;;;;;;9.23;5.80;;;;;;;;;;5021992;28;20052;-80
2023/05/11 03:45:20;;;;;;;9.77;5.50;;;;;;;;;;5029534;28;20055;-81
2023/05/11 03:47:48;;;;;;;9.02;5.15;;;;;;;;;;5027442;28;20131;-80
2023/05/11 03:50:14;;;;;;;9.35;5.65;;;;;;;;;;5039887;28;20405;-81
2023/05/11 03:52:40;;;;;;;7.25;4.55;;;;;;;;;;5046749;28;20456;-80
2023/05/11 03:55:06;;;;;;;8.27;5.20;;;;;;;;;;5025847;28;20631;-81
2023/05/11 03:57:33;;;;;;;9.52;5.47;;;;;;;;;;5038727;28;20055;-80
2023/05/11 03:59:58;;;;;;;10.05;5.35;;;;;;;;;;5045199;28;20051;-81
2023/05/11 04:02:24;;;;;;;10.02;5.00;;;;;;;;;;5024694;28;20037;-81
2023/05/11 04:04:51;;;;;;;8.27;4.78;;;;;;;;;;5044354;28;20038;-81
2023/05/11 04:07:16;;;;;;;9.88;5.15;;;;;;;;;;5041826;28;20129;-81
2023/05/11 04:09:42;;;;;;;9.90;5.32;;;;;;;;;;5048765;28;20060;-80
2023/05/11 04:12:07;;;;;;;8.52;5.15;;;;;;;;;;5042960;28;20545;-81
2023/05/11 04:14:32;;;;;;;10.02;6.13;;;;;;;;;;5048907;28;20068;-81
2023/05/11 04:16:58;;;;;;;10.02;5.40;;;;;;;;;;5045543;28;20113;-82
2023/05/11 04:19:23;;;;;;;6.65;4.10;;;;;;;;;;5043717;28;20049;-81
2023/05/11 04:21:49;;;;;;;7.80;4.45;;;;;;;;;;5011054;28;20048;-80
2023/05/11 04:24:14;;;;;;;7.88;4.80;;;;;;;;;;5047184;28;20044;-81
2023/05/11 04:26:39;;;;;;;8.27;4.75;;;;;;;;;;5003908;28;20034;-80
2023/05/11 04:29:05;;;;;;;7.07;4.80;;;;;;;;;;5019871;28;20488;-82
2023/05/11 04:31:31;;;;;;;7.95;4.82;;;;;;;;;;5022702;28;20040;-80
2023/05/11 04:33:56;;;;;;;6.18;4.07;;;;;;;;;;5047627;28;20041;-79
2023/05/11 04:36:21;;;;;;;7.65;4.85;;;;;;;;;;5036540;28;20040;-81
2023/05/11 04:38:47;;;;;;;9.70;4.50;;;;;;;;;;5028257;28;20076;-80
2023/05/11 04:41:13;;;;;;;6.90;3.75;;;;;;;;;;5046702;28;20635;-80
2023/05/11 04:43:39;;;;;;;8.00;4.43;;;;;;;;;;5035979;28;20126;-81
2023/05/11 04:46:04;;;;;;;7.18;4.22;;;;;;;;;;5044787;28;20738;-80
2023/05/11 04:48:31;;;;;;;8.05;4.70;;;;;;;;;;5041917;28;20036;-81
2023/05/11 04:50:56;;;;;;;6.43;3.65;;;;;;;;;;5004293;28;20122;-82
2023/05/11 04:53:22;;;;;;;11.80;5.13;;;;;;;;;;5006156;28;20115;-81
2023/05/11 04:55:47;;;;;;;10.00;5.03;;;;;;;;;;5032245;28;20036;-81
2023/05/11 04:58:13;;;;;;;6.85;4.30;;;;;;;;;;5046356;28;20048;-80
2023/05/11 05:00:38;;;;;;;9.10;5.00;;;;;;;;;;5024932;28;20071;-81
2023/05/11 05:03:04;;;;;;;8.10;4.72;;;;;;;;;;5049554;28;20106;-80
2023/05/11 05:05:29;;;;;;;9.50;5.00;;;;;;;;;;5034168;28;20535;-77
2023/05/11 05:07:55;;;;;;;9.23;5.35;;;;;;;;;;5036268;28;20062;-78
2023/05/11 05:10:20;;;;;;;12.05;5.53;;;;;;;;;;5037756;28;20036;-79
2023/05/11 05:12:46;;;;;;;8.43;5.00;;;;;;;;;;5046265;28;20085;-81
2023/05/11 05:15:12;;;;;;;10.20;5.47;;;;;;;;;;5046702;28;20033;-77
2023/05/11 05:17:37;;;;;;;9.23;4.97;;;;;;;;;;5046035;28;20036;-77
2023/05/11 05:20:03;;;;;;;8.93;5.32;;;;;;;;;;5036518;28;20051;-78
2023/05/11 05:22:30;;;;;;;10.35;5.47;;;;;;;;;;5029518;28;20590;-79
2023/05/11 05:24:55;;;;;;;11.48;5.07;;;;;;;;;;5056738;28;20032;-78
2023/05/11 05:27:21;;;;;;;10.40;5.93;;;;;;;;;;5044027;28;20048;-78
2023/05/11 05:29:46;;;;;;;10.38;5.53;;;;;;;;;;5042623;28;20036;-79
2023/05/11 05:32:12;;;;;;;4.60;2.95;;;;;;;;;;5044068;28;20037;-79
2023/05/11 05:34:37;;;;;;;7.82;4.70;;;;;;;;;;5022358;28;20051;-78
2023/05/11 05:37:03;;;;;;;8.93;5.13;;;;;;;;;;5014475;28;20681;-78
2023/05/11 05:39:28;;;;;;;8.60;5.22;;;;;;;;;;5047723;28;20087;-78
2023/05/11 05:41:53;;;;;;;6.00;3.80;;;;;;;;;;5055098;28;20135;-78
2023/05/11 05:44:19;;;;;;;6.80;3.85;;;;;;;;;;5050492;28;20077;-78
2023/05/11 05:46:44;;;;;;;7.10;4.25;;;;;;;;;;5039494;28;20033;-77
2023/05/11 05:49:10;;;;;;;8.27;3.45;;;;;;;;;;5056968;28;20036;-77
2023/05/11 05:51:35;;;;;;;5.40;3.17;;;;;;;;;;5039730;28;20041;-78
2023/05/11 05:54:01;;;;;;;7.05;3.65;;;;;;;;;;5051170;28;20028;-77
2023/05/11 05:56:26;;;;;;;3.25;2.20;;;;;;;;;;5053400;28;20087;-79
2023/05/11 05:58:51;;;;;;;4.32;3.00;;;;;;;;;;5062741;28;20043;-78
2023/05/11 06:01:17;;;;;;;4.03;2.70;;;;;;;;;;5005743;28;20099;-78
2023/05/11 06:03:44;;;;;;;4.25;2.88;;;;;;;;;;5013543;28;20536;-77
2023/05/11 06:06:10;;;;;;;7.82;4.35;;;;;;;;;;5012933;28;20045;-79
2023/05/11 06:08:36;;;;;;;8.15;4.60;;;;;;;;;;5028305;28;20041;-78
2023/05/11 06:11:01;;;;;;;7.00;3.78;;;;;;;;;;5034484;28;20033;-78
2023/05/11 06:13:27;;;;;;;6.80;5.38;;;;;;;;;;5034044;28;20056;-77
2023/05/11 06:15:52;;;;;;;6.78;4.32;;;;;;;;;;5000283;28;20157;-78
2023/05/11 06:18:17;;;;;;;6.40;3.60;;;;;;;;;;5007045;28;20036;-77
2023/05/11 06:20:43;;;;;;;7.68;4.18;;;;;;;;;;5029426;28;20052;-77
2023/05/11 06:23:08;;;;;;;4.38;3.13;;;;;;;;;;5040926;28;20036;-78
2023/05/11 06:25:34;;;;;;;1.83;1.50;;;;;;;;;;5050931;28;20037;-78
2023/05/11 06:28:00;;;;;;;4.78;2.75;;;;;;;;;;5050708;28;20045;-79
2023/05/11 06:30:25;;;;;;;5.82;4.03;;;;;;;;;;5034286;28;20060;-78
2023/05/11 06:32:50;;;;;;;6.65;4.57;;;;;;;;;;5047215;28;20518;-78
2023/05/11 06:35:16;;;;;;;2.50;2.05;;;;;;;;;;5051140;28;20048;-78
2023/05/11 06:37:41;;;;;;;7.45;4.70;;;;;;;;;;5048181;28;20133;-78
2023/05/11 06:40:07;;;;;;;7.68;5.63;;;;;;;;;;5047714;28;20040;-78
2023/05/11 06:42:33;;;;;;;6.40;5.07;;;;;;;;;;5056949;28;20048;-77
2023/05/11 06:44:58;;;;;;;5.70;4.65;;;;;;;;;;5041243;28;20644;-78
2023/05/11 06:47:23;;;;;;;5.68;3.90;;;;;;;;;;5005468;28;20062;-78
2023/05/11 06:49:49;;;;;;;6.07;4.00;;;;;;;;;;5040781;28;20145;-78
2023/05/11 06:52:14;;;;;;;3.80;2.90;;;;;;;;;;5056247;28;20039;-78
2023/05/11 06:54:40;;;;;;;2.33;1.90;;;;;;;;;;5057013;28;20090;-78
2023/05/11 06:57:05;;;;;;;1.77;1.65;;;;;;;;;;5050033;28;20079;-78
2023/05/11 06:59:31;;;;;;;2.03;1.63;;;;;;;;;;5015734;28;20059;-78
2023/05/11 07:01:57;;;;;;;2.17;1.52;;;;;;;;;;5017921;28;20048;-78
2023/05/11 07:04:23;;;;;;;1.98;1.77;;;;;;;;;;5046314;28;20575;-78
2023/05/11 07:06:48;;;;;;;2.38;1.85;;;;;;;;;;5041561;28;20409;-78
2023/05/11 07:09:14;;;;;;;2.03;1.70;;;;;;;;;;5051696;28;20044;-78
2023/05/11 07:11:40;;;;;;;4.35;2.97;;;;;;;;;;5025190;28;20127;-78
2023/05/11 07:14:07;;;;;;;2.05;1.85;;;;;;;;;;5054486;28;20062;-77
2023/05/11 07:16:38;;;;;;;2.47;1.75;;;;;;;;;;5038614;28;20593;-77
2023/05/11 07:19:04;;;;;;;2.38;1.70;;;;;;;;;;5047321;28;20037;-78
2023/05/11 07:21:31;;;;;;;3.75;2.85;;;;;;;;;;5048838;28;20040;-78
2023/05/11 07:23:57;;;;;;;2.85;1.98;;;;;;;;;;5027187;28;20024;-78
2023/05/11 07:26:22;;;;;;;2.13;1.67;;;;;;;;;;5043858;28;20101;-77
2023/05/11 07:28:48;;;;;;;3.08;2.30;;;;;;;;;;5042627;28;20502;-78
2023/05/11 07:31:13;;;;;;;1.63;1.40;;;;;;;;;;5050550;28;20094;-78
2023/05/11 07:33:38;;;;;;;1.42;1.33;;;;;;;;;;5045192;28;20739;-77
2023/05/11 07:36:06;;;;;;;2.13;1.88;;;;;;;;;;5052740;28;20043;-77
2023/05/11 07:38:31;;;;;;;1.80;1.50;;;;;;;;;;5052527;28;20031;-78
2023/05/11 07:40:57;;;;;;;2.03;1.83;;;;;;;;;;5023826;28;20044;-77
2023/05/11 07:43:22;;;;;;;1.42;1.33;;;;;;;;;;5040570;28;20044;-76
2023/05/11 07:45:47;;;;;;;1.58;1.48;;;;;;;;;;5051872;28;20669;-78
2023/05/11 07:48:13;;;;;;;2.13;1.83;;;;;;;;;;5054659;28;20036;-77
2023/05/11 07:50:41;;;;;;;1.40;1.30;;;;;;;;;;5049155;28;20035;-77
2023/05/11 07:53:06;;;;;;;1.30;1.20;;;;;;;;;;5038702;28;20036;-77
2023/05/11 07:55:32;;;;;;;1.42;1.23;;;;;;;;;;5052800;28;20054;-76
2023/05/11 07:57:57;;;;;;;1.42;1.33;;;;;;;;;;5038870;28;20075;-76
2023/05/11 08:00:23;;;;;;;1.90;1.40;;;;;;;;;;5053801;28;20044;-77
2023/05/11 08:02:48;;;;;;;1.45;1.35;;;;;;;;;;5043776;28;20036;-77
2023/05/11 08:05:13;;;;;;;3.13;2.00;;;;;;;;;;5052965;28;20090;-77
2023/05/11 08:07:39;;;;;;;1.90;1.77;;;;;;;;;;5033248;28;20044;-78
2023/05/11 08:10:05;;;;;;;1.90;1.80;;;;;;;;;;5049172;28;20521;-78
2023/05/11 08:12:30;;;;;;;2.00;1.80;;;;;;;;;;4994774;28;20068;-78
2023/05/11 08:14:56;;;;;;;1.85;1.73;;;;;;;;;;5024642;28;20048;-78
2023/05/11 08:17:21;;;;;;;1.65;1.55;;;;;;;;;;5035485;28;20079;-77
2023/05/11 08:19:47;;;;;;;2.38;2.08;;;;;;;;;;5049374;28;20865;-77
2023/05/11 08:22:12;;;;;;;1.60;1.50;;;;;;;;;;5044049;28;20048;-76
2023/05/11 08:24:38;;;;;;;2.50;2.00;;;;;;;;;;5046005;28;20185;-76
2023/05/11 08:27:03;;;;;;;2.05;1.70;;;;;;;;;;5052475;28;20041;-77
2023/05/11 08:29:29;;;;;;;2.05;1.85;;;;;;;;;;5047833;28;20111;-76
2023/05/11 08:31:55;;;;;;;2.20;1.55;;;;;;;;;;5053806;28;20152;-77
2023/05/11 08:34:21;;;;;;;2.30;2.05;;;;;;;;;;5049958;28;20491;-78
2023/05/11 08:36:47;;;;;;;2.30;1.73;;;;;;;;;;5038189;28;20416;-76
2023/05/11 08:39:12;;;;;;;2.08;1.85;;;;;;;;;;5006873;28;20521;-78
2023/05/11 08:41:38;;;;;;;2.17;1.70;;;;;;;;;;5028773;28;20044;-78
2023/05/11 08:44:03;;;;;;;2.67;2.40;;;;;;;;;;5055394;28;20562;-77
2023/05/11 08:46:34;;;;;;;2.40;1.70;;;;;;;;;;5048589;28;20158;-78
2023/05/11 08:49:00;;;;;;;2.72;2.28;;;;;;;;;;5031461;28;20036;-77
2023/05/11 08:51:27;;;;;;;2.13;2.00;;;;;;;;;;4984910;28;20042;-78
2023/05/11 08:53:53;;;;;;;2.38;2.03;;;;;;;;;;5015126;28;20040;-77
2023/05/11 08:56:21;;;;;;;2.45;1.88;;;;;;;;;;5038717;28;20124;-77
2023/05/11 08:58:46;;;;;;;2.92;2.20;;;;;;;;;;5048472;28;20033;-78
2023/05/11 09:01:13;;;;;;;3.40;2.50;;;;;;;;;;5047880;28;20052;-78
2023/05/11 09:03:40;;;;;;;2.00;1.90;;;;;;;;;;5027538;28;20497;-77
2023/05/11 09:06:06;;;;;;;2.45;2.00;;;;;;;;;;5039726;28;20409;-77
2023/05/11 09:08:35;;;;;;;1.80;1.45;;;;;;;;;;5044959;28;20401;-77
2023/05/11 09:11:00;;;;;;;2.30;1.90;;;;;;;;;;5038882;28;20037;-77
2023/05/11 09:13:26;;;;;;;2.15;1.95;;;;;;;;;;5052058;28;20043;-78
2023/05/11 09:15:52;;;;;;;1.75;1.63;;;;;;;;;;5044831;28;20109;-77
2023/05/11 09:18:17;;;;;;;2.30;2.10;;;;;;;;;;5032313;28;20033;-77
2023/05/11 09:20:43;;;;;;;1.40;1.30;;;;;;;;;;5047379;28;20059;-78
2023/05/11 09:23:09;;;;;;;1.70;1.30;;;;;;;;;;5052480;28;20432;-77
2023/05/11 09:25:38;;;;;;;1.52;1.38;;;;;;;;;;5034308;28;20032;-77
2023/05/11 09:28:04;;;;;;;1.50;1.20;;;;;;;;;;5049804;28;20175;-76
2023/05/11 09:30:29;;;;;;;1.98;1.73;;;;;;;;;;5037299;28;20882;-77
2023/05/11 09:32:57;;;;;;;2.05;1.95;;;;;;;;;;5051884;28;20036;-77
2023/05/11 09:35:33;;;;;;;2.58;2.22;;;;;;;;;;5045500;28;20052;-76
2023/05/11 09:38:11;;;;;;;1.10;1.00;;;;;;;;;;5066967;28;20054;-76
2023/05/11 09:40:45;;;;;;;2.05;1.50;;;;;;;;;;5055025;28;20031;-77
2023/05/11 09:43:18;;;;;;;1.25;1.15;;;;;;;;;;5039224;28;20119;-78
2023/05/11 09:45:46;;;;;;;1.90;1.70;;;;;;;;;;5041666;28;20041;-77
2023/05/11 09:48:20;;;;;;;1.25;1.15;;;;;;;;;;5056205;28;20114;-77
2023/05/11 09:50:49;;;;;;;1.52;1.10;;;;;;;;;;5054624;28;20051;-78
2023/05/11 09:53:15;;;;;;;1.48;1.10;;;;;;;;;;5055624;28;20037;-77
2023/05/11 09:55:52;;;;;;;1.63;1.30;;;;;;;;;;5052274;28;20041;-77
2023/05/11 09:58:17;;;;;;;1.38;1.17;;;;;;;;;;5019776;28;20090;-78
2023/05/11 10:00:50;;;;;;;1.10;1.10;;;;;;;;;;5020808;28;20049;-78
2023/05/11 10:03:16;;;;;;;1.80;1.08;;;;;;;;;;5017609;28;20065;-77
2023/05/11 10:05:55;;;;;;;1.30;1.20;;;;;;;;;;5044366;28;20028;-78
2023/05/11 10:08:27;;;;;;;1.40;1.30;;;;;;;;;;5033864;28;20041;-77
2023/05/11 10:10:54;;;;;;;2.13;1.40;;;;;;;;;;5016437;28;20037;-77
2023/05/11 10:13:20;;;;;;;1.25;1.10;;;;;;;;;;5053300;28;20611;-77
2023/05/11 10:15:48;;;;;;;1.20;1.10;;;;;;;;;;5054212;28;20045;-77
2023/05/11 10:18:13;;;;;;;1.10;1.00;;;;;;;;;;5046586;28;20032;-78
2023/05/11 10:20:39;;;;;;;1.45;1.35;;;;;;;;;;5038222;28;20044;-77
2023/05/11 10:23:05;;;;;;;1.23;1.13;;;;;;;;;;5039650;28;20607;-78
2023/05/11 10:25:30;;;;;;;1.20;1.10;;;;;;;;;;5043187;28;20033;-78
2023/05/11 10:27:56;;;;;;;1.20;1.10;;;;;;;;;;5054491;28;20047;-78
2023/05/11 10:30:22;;;;;;;1.92;1.40;;;;;;;;;;5050786;28;20048;-77
2023/05/11 10:32:48;;;;;;;2.25;1.20;;;;;;;;;;5059631;28;20119;-77
2023/05/11 10:35:13;;;;;;;1.20;1.10;;;;;;;;;;5048727;28;20509;-77
2023/05/11 10:37:42;;;;;;;3.13;1.08;;;;;;;;;;5044699;28;20171;-78
2023/05/11 10:40:08;;;;;;;1.45;0.82;;;;;;;;;;5041636;28;20036;-78
2023/05/11 10:43:12;;;;;;;0.77;0.77;;;;;;;;;;5058843;28;20051;-77
2023/05/11 10:46:02;;;;;;;0.70;0.70;;;;;;;;;;5026610;28;20092;-77
2023/05/11 10:48:49;;;;;;;1.10;1.00;;;;;;;;;;5010207;28;20733;-78
2023/05/11 10:51:33;;;;;;;0.70;0.70;;;;;;;;;;5045926;28;20102;-78
2023/05/11 10:54:07;;;;;;;0.98;0.88;;;;;;;;;;5004114;28;20113;-78
2023/05/11 10:56:59;;;;;;;0.90;0.90;;;;;;;;;;5040878;28;20099;-77
2023/05/11 10:59:48;;;;;;;1.20;1.08;;;;;;;;;;5037738;28;20037;-78
2023/05/11 11:02:15;;;;;;;1.20;1.10;;;;;;;;;;5026564;28;20060;-78
2023/05/11 11:04:46;;;;;;;3.25;2.95;;;;;;;;;;5054182;28;20036;-78
2023/05/11 11:07:16;;;;;;;1.33;1.23;;;;;;;;;;5036727;28;20113;-78
2023/05/11 11:09:55;;;;;;;1.02;0.93;;;;;;;;;;5027790;28;20041;-78
2023/05/11 11:12:22;;;;;;;2.10;1.77;;;;;;;;;;5014541;28;20043;-78
2023/05/11 11:14:56;;;;;;;3.00;2.60;;;;;;;;;;5026024;28;20509;-78
2023/05/11 11:17:26;;;;;;;3.60;2.70;;;;;;;;;;5037542;28;20037;-78
2023/05/11 11:19:51;;;;;;;6.88;5.53;;;;;;;;;;5028959;28;20032;-78
2023/05/11 11:22:49;;;;;;;9.23;6.63;;;;;;;;;;5043325;28;20070;-78
2023/05/11 11:25:52;;;;;;;2.08;1.55;;;;;;;;;;4983842;28;20122;-78
2023/05/11 11:28:18;;;;;;;3.70;3.20;;;;;;;;;;5028891;28;20057;-78
2023/05/11 11:30:43;;;;;;;4.82;4.32;;;;;;;;;;5054272;28;20138;-78
2023/05/11 11:33:09;;;;;;;6.75;4.82;;;;;;;;;;5045052;28;20427;-79
2023/05/11 11:35:40;;;;;;;5.85;4.65;;;;;;;;;;5036185;28;20063;-79
2023/05/11 11:38:10;;;;;;;9.88;6.15;;;;;;;;;;5031118;28;20049;-79
2023/05/11 11:40:37;;;;;;;8.38;6.15;;;;;;;;;;5009570;28;20378;-79
2023/05/11 11:43:17;;;;;;;9.77;6.63;;;;;;;;;;5050783;28;20525;-78
2023/05/11 11:45:53;;;;;;;11.50;6.97;;;;;;;;;;5050160;28;20040;-78
2023/05/11 11:48:41;;;;;;;9.98;7.10;;;;;;;;;;5037668;28;20041;-78
2023/05/11 11:51:09;;;;;;;11.23;8.32;;;;;;;;;;5005758;28;20100;-78
2023/05/11 11:53:39;;;;;;;12.57;8.90;;;;;;;;;;5034668;28;20075;-79
2023/05/11 11:56:27;;;;;;;13.15;9.45;;;;;;;;;;5032693;28;20032;-78
2023/05/11 11:58:59;;;;;;;10.10;6.97;;;;;;;;;;5032925;28;20542;-79
2023/05/11 12:01:36;;;;;;;12.13;8.38;;;;;;;;;;5029185;28;20045;-79
2023/05/11 12:04:35;;;;;;;15.75;9.90;;;;;;;;;;5044926;28;20090;-78
2023/05/11 12:07:03;;;;;;;14.15;9.30;;;;;;;;;;5015155;28;20029;-79
2023/05/11 12:09:29;;;;;;;13.50;10.30;;;;;;;;;;5050031;28;22187;-80
2023/05/11 12:11:55;;;;;;;15.23;10.15;;;;;;;;;;5046966;28;20037;-79
2023/05/11 12:14:21;;;;;;;16.67;10.57;;;;;;;;;;5046362;28;20508;-79
2023/05/11 12:17:03;;;;;;;15.35;10.93;;;;;;;;;;5037715;28;20095;-79
2023/05/11 12:19:30;;;;;;;14.20;10.90;;;;;;;;;;5032942;28;20167;-80
2023/05/11 12:21:55;;;;;;;13.70;10.07;;;;;;;;;;5048600;28;20166;-78
2023/05/11 12:24:21;;;;;;;15.88;11.27;;;;;;;;;;5033835;28;20119;-79
2023/05/11 12:26:46;;;;;;;15.80;11.05;;;;;;;;;;5047662;28;20043;-78
2023/05/11 12:29:13;;;;;;;17.23;11.50;;;;;;;;;;5049621;28;20024;-77
2023/05/11 12:31:41;;;;;;;16.25;11.32;;;;;;;;;;5044117;28;20043;-77
2023/05/11 12:34:20;;;;;;;19.35;12.88;;;;;;;;;;5034064;28;20529;-76
2023/05/11 12:36:47;;;;;;;16.05;11.93;;;;;;;;;;5032377;28;20036;-77
2023/05/11 12:39:17;;;;;;;17.02;12.43;;;;;;;;;;5036668;28;20058;-78
2023/05/11 12:41:43;;;;;;;17.15;12.02;;;;;;;;;;5031333;28;20123;-78
2023/05/11 12:44:10;;;;;;;17.15;12.80;;;;;;;;;;5018068;28;20037;-75
2023/05/11 12:46:35;;;;;;;18.27;12.68;;;;;;;;;;5001562;28;20556;-79
2023/05/11 12:49:01;;;;;;;21.92;13.65;;;;;;;;;;5040008;28;20036;-78
2023/05/11 12:51:59;;;;;;;18.13;13.70;;;;;;;;;;5014911;28;20143;-78
2023/05/11 12:54:33;;;;;;;17.15;12.43;;;;;;;;;;4993916;28;20099;-78
2023/05/11 12:57:01;;;;;;;20.15;13.30;;;;;;;;;;4989177;28;20094;-77
2023/05/11 12:59:32;;;;;;;18.20;12.98;;;;;;;;;;5002045;28;20072;-79
2023/05/11 13:02:26;;;;;;;19.25;13.82;;;;;;;;;;5023511;28;20044;-79
2023/05/11 13:04:52;;;;;;;19.63;13.70;;;;;;;;;;5006720;28;20453;-77
2023/05/11 13:07:25;;;;;;;20.38;15.10;;;;;;;;;;5017561;28;20049;-79
2023/05/11 13:09:59;;;;;;;21.42;15.02;;;;;;;;;;5029529;28;20049;-79
2023/05/11 13:12:25;;;;;;;21.83;14.45;;;;;;;;;;4991498;28;20493;-78
2023/05/11 13:15:11;;;;;;;23.17;15.68;;;;;;;;;;5034336;28;20041;-77
2023/05/11 13:17:38;;;;;;;19.67;14.98;;;;;;;;;;5006045;28;20305;-77
2023/05/11 13:20:25;;;;;;;19.88;14.70;;;;;;;;;;5017506;28;20037;-76
2023/05/11 13:22:51;;;;;;;22.77;15.23;;;;;;;;;;5022811;28;20620;-78
2023/05/11 13:25:19;;;;;;;20.13;14.60;;;;;;;;;;5024454;28;20128;-78
2023/05/11 13:27:44;;;;;;;21.92;14.93;;;;;;;;;;5035379;28;20041;-78
2023/05/11 13:30:10;;;;;;;22.35;15.02;;;;;;;;;;5003613;28;20038;-78
2023/05/11 13:32:36;;;;;;;9.60;7.75;;;;;;;;;;5016398;28;20037;-77
2023/05/11 13:35:06;;;;;;;21.02;14.13;;;;;;;;;;5038548;28;20041;-76
2023/05/11 13:37:31;;;;;;;9.90;7.90;;;;;;;;;;5027958;28;20497;-77
2023/05/11 13:39:56;;;;;;;16.98;11.68;;;;;;;;;;5021797;28;20030;-76
2023/05/11 13:42:22;;;;;;;16.45;11.38;;;;;;;;;;5026350;28;20602;-76
2023/05/11 13:44:47;;;;;;;16.52;11.40;;;;;;;;;;5029734;28;20029;-77
2023/05/11 13:47:13;;;;;;;15.70;11.73;;;;;;;;;;5024767;28;20029;-76
2023/05/11 13:49:38;;;;;;;15.77;12.07;;;;;;;;;;5020125;28;20034;-78
2023/05/11 13:52:04;;;;;;;12.55;9.20;;;;;;;;;;5023298;28;20474;-77
2023/05/11 13:54:31;;;;;;;14.85;10.88;;;;;;;;;;5025006;28;20056;-76
2023/05/11 13:56:56;;;;;;;16.77;11.40;;;;;;;;;;5026306;28;20018;-76
2023/05/11 13:59:22;;;;;;;14.10;10.88;;;;;;;;;;5030902;28;20040;-76
2023/05/11 14:01:47;;;;;;;16.10;10.73;;;;;;;;;;5024249;28;20033;-78
2023/05/11 14:04:13;;;;;;;17.45;11.45;;;;;;;;;;5043158;28;20091;-79
2023/05/11 14:06:39;;;;;;;12.07;9.65;;;;;;;;;;5033387;28;20032;-76
2023/05/11 14:09:04;;;;;;;13.77;10.88;;;;;;;;;;5024004;28;20022;-78
2023/05/11 14:11:30;;;;;;;14.45;10.55;;;;;;;;;;5026766;28;20033;-77
2023/05/11 14:13:56;;;;;;;14.98;11.63;;;;;;;;;;5025120;28;20025;-79
2023/05/11 14:16:21;;;;;;;12.27;10.05;;;;;;;;;;5029621;28;20497;-79
2023/05/11 14:18:49;;;;;;;13.27;9.52;;;;;;;;;;5032354;28;20025;-77
2023/05/11 14:21:14;;;;;;;12.68;10.57;;;;;;;;;;5023434;28;20037;-75
2023/05/11 14:23:40;;;;;;;13.35;10.93;;;;;;;;;;5023590;28;20025;-75
2023/05/11 14:26:06;;;;;;;14.90;10.73;;;;;;;;;;5024659;28;20048;-77
2023/05/11 14:28:31;;;;;;;13.35;9.68;;;;;;;;;;5029677;28;20795;-78
2023/05/11 14:30:57;;;;;;;15.75;10.70;;;;;;;;;;5024717;28;20030;-78
2023/05/11 14:33:25;;;;;;;13.25;10.75;;;;;;;;;;5027366;28;20029;-77
2023/05/11 14:35:51;;;;;;;13.57;10.93;;;;;;;;;;5027918;28;20091;-78
2023/05/11 14:38:17;;;;;;;13.48;10.65;;;;;;;;;;5026099;28;20101;-78
2023/05/11 14:40:42;;;;;;;14.38;11.38;;;;;;;;;;5041569;28;20041;-75
2023/05/11 14:43:08;;;;;;;18.48;11.80;;;;;;;;;;5047880;28;20028;-75
2023/05/11 14:45:33;;;;;;;16.00;12.40;;;;;;;;;;5030268;28;20052;-78